sensor_id;sensor_type;location;lat;lon;timestamp;P1;durP1;ratioP1;P2;durP2;ratioP2
43216;SDS011;71549;42.686;23.300;2023-10-13T00:00:41;9.07;;;6.65;;
43216;SDS011;71549;42.686;23.300;2023-10-13T00:02:42;8.25;;;5.88;;
43216;SDS011;71549;42.686;23.300;2023-10-13T00:04:43;6.85;;;6.03;;
43216;SDS011;71549;42.686;23.300;2023-10-13T00:06:46;9.48;;;6.20;;
43216;SDS011;71549;42.686;23.300;2023-10-13T00:08:46;8.30;;;6.10;;
43216;SDS011;71549;42.686;23.300;2023-10-13T00:10:47;7.15;;;6.28;;
43216;SDS011;71549;42.686;23.300;2023-10-13T00:12:47;7.10;;;5.82;;
43216;SDS011;71549;42.686;23.300;2023-10-13T00:14:52;6.68;;;6.00;;
43216;SDS011;71549;42.686;23.300;2023-10-13T00:16:53;7.00;;;5.65;;
43216;SDS011;71549;42.686;23.300;2023-10-13T00:19:13;6.30;;;5.60;;
43216;SDS011;71549;42.686;23.300;2023-10-13T00:21:13;7.07;;;6.25;;
43216;SDS011;71549;42.686;23.300;2023-10-13T00:23:35;7.38;;;6.65;;
43216;SDS011;71549;42.686;23.300;2023-10-13T00:25:35;6.40;;;5.80;;
43216;SDS011;71549;42.686;23.300;2023-10-13T00:27:50;7.63;;;5.63;;
43216;SDS011;71549;42.686;23.300;2023-10-13T00:29:52;6.63;;;5.32;;
43216;SDS011;71549;42.686;23.300;2023-10-13T00:32:13;7.40;;;5.75;;
43216;SDS011;71549;42.686;23.300;2023-10-13T00:34:17;8.30;;;5.70;;
43216;SDS011;71549;42.686;23.300;2023-10-13T00:36:27;7.50;;;5.88;;
43216;SDS011;71549;42.686;23.300;2023-10-13T00:38:28;6.57;;;5.47;;
43216;SDS011;71549;42.686;23.300;2023-10-13T00:40:28;6.43;;;5.75;;
43216;SDS011;71549;42.686;23.300;2023-10-13T00:42:31;7.05;;;5.25;;
43216;SDS011;71549;42.686;23.300;2023-10-13T00:44:51;6.60;;;5.90;;
43216;SDS011;71549;42.686;23.300;2023-10-13T00:46:54;8.48;;;5.90;;
43216;SDS011;71549;42.686;23.300;2023-10-13T00:48:56;7.27;;;6.07;;
43216;SDS011;71549;42.686;23.300;2023-10-13T00:50:58;6.50;;;5.80;;
43216;SDS011;71549;42.686;23.300;2023-10-13T00:53:07;6.43;;;5.65;;
43216;SDS011;71549;42.686;23.300;2023-10-13T00:55:09;6.28;;;5.50;;
43216;SDS011;71549;42.686;23.300;2023-10-13T00:57:14;9.48;;;6.45;;
43216;SDS011;71549;42.686;23.300;2023-10-13T00:59:29;6.97;;;6.28;;
43216;SDS011;71549;42.686;23.300;2023-10-13T01:01:41;6.05;;;5.32;;
43216;SDS011;71549;42.686;23.300;2023-10-13T01:03:47;7.22;;;5.63;;
43216;SDS011;71549;42.686;23.300;2023-10-13T01:05:49;6.93;;;5.43;;
43216;SDS011;71549;42.686;23.300;2023-10-13T01:07:54;8.07;;;6.05;;
43216;SDS011;71549;42.686;23.300;2023-10-13T01:09:54;6.13;;;5.53;;
43216;SDS011;71549;42.686;23.300;2023-10-13T01:11:55;7.57;;;5.43;;
43216;SDS011;71549;42.686;23.300;2023-10-13T01:13:56;6.93;;;6.22;;
43216;SDS011;71549;42.686;23.300;2023-10-13T01:15:57;6.25;;;5.30;;
43216;SDS011;71549;42.686;23.300;2023-10-13T01:18:07;7.45;;;6.25;;
43216;SDS011;71549;42.686;23.300;2023-10-13T01:20:14;6.18;;;5.57;;
43216;SDS011;71549;42.686;23.300;2023-10-13T01:22:25;6.65;;;5.97;;
43216;SDS011;71549;42.686;23.300;2023-10-13T01:24:28;7.40;;;5.82;;
43216;SDS011;71549;42.686;23.300;2023-10-13T01:28:36;7.45;;;5.07;;
43216;SDS011;71549;42.686;23.300;2023-10-13T01:30:44;7.78;;;5.43;;
43216;SDS011;71549;42.686;23.300;2023-10-13T01:32:50;6.30;;;5.47;;
43216;SDS011;71549;42.686;23.300;2023-10-13T01:34:51;6.93;;;6.13;;
43216;SDS011;71549;42.686;23.300;2023-10-13T01:36:55;5.68;;;5.05;;
43216;SDS011;71549;42.686;23.300;2023-10-13T01:38:56;6.97;;;6.07;;
43216;SDS011;71549;42.686;23.300;2023-10-13T01:41:04;6.43;;;5.53;;
43216;SDS011;71549;42.686;23.300;2023-10-13T01:43:06;6.93;;;6.22;;
43216;SDS011;71549;42.686;23.300;2023-10-13T01:45:10;6.30;;;5.70;;
43216;SDS011;71549;42.686;23.300;2023-10-13T01:47:14;7.13;;;5.90;;
43216;SDS011;71549;42.686;23.300;2023-10-13T01:49:16;7.55;;;6.13;;
43216;SDS011;71549;42.686;23.300;2023-10-13T01:51:17;5.68;;;5.05;;
43216;SDS011;71549;42.686;23.300;2023-10-13T01:53:18;8.73;;;5.95;;
43216;SDS011;71549;42.686;23.300;2023-10-13T01:55:19;6.93;;;5.97;;
43216;SDS011;71549;42.686;23.300;2023-10-13T01:57:20;6.47;;;5.43;;
43216;SDS011;71549;42.686;23.300;2023-10-13T01:59:24;7.32;;;5.47;;
43216;SDS011;71549;42.686;23.300;2023-10-13T02:01:32;6.22;;;5.22;;
43216;SDS011;71549;42.686;23.300;2023-10-13T02:03:34;6.35;;;5.75;;
43216;SDS011;71549;42.686;23.300;2023-10-13T02:05:44;6.28;;;5.55;;
43216;SDS011;71549;42.686;23.300;2023-10-13T02:07:48;7.03;;;5.63;;
43216;SDS011;71549;42.686;23.300;2023-10-13T02:09:48;6.53;;;5.63;;
43216;SDS011;71549;42.686;23.300;2023-10-13T02:11:49;7.60;;;5.95;;
43216;SDS011;71549;42.686;23.300;2023-10-13T02:13:54;6.93;;;5.63;;
43216;SDS011;71549;42.686;23.300;2023-10-13T02:15:57;8.57;;;5.82;;
43216;SDS011;71549;42.686;23.300;2023-10-13T02:17:57;7.07;;;5.80;;
43216;SDS011;71549;42.686;23.300;2023-10-13T02:20:01;6.88;;;5.57;;
43216;SDS011;71549;42.686;23.300;2023-10-13T02:22:08;7.22;;;5.38;;
43216;SDS011;71549;42.686;23.300;2023-10-13T02:24:10;6.25;;;5.45;;
43216;SDS011;71549;42.686;23.300;2023-10-13T02:26:17;6.25;;;5.63;;
43216;SDS011;71549;42.686;23.300;2023-10-13T02:28:30;6.80;;;5.60;;
43216;SDS011;71549;42.686;23.300;2023-10-13T02:30:41;8.15;;;5.65;;
43216;SDS011;71549;42.686;23.300;2023-10-13T02:32:44;6.32;;;5.47;;
43216;SDS011;71549;42.686;23.300;2023-10-13T02:34:46;7.03;;;5.90;;
43216;SDS011;71549;42.686;23.300;2023-10-13T02:36:47;7.22;;;5.55;;
43216;SDS011;71549;42.686;23.300;2023-10-13T02:38:49;7.18;;;6.07;;
43216;SDS011;71549;42.686;23.300;2023-10-13T02:40:50;7.20;;;5.53;;
43216;SDS011;71549;42.686;23.300;2023-10-13T02:42:52;8.70;;;5.28;;
43216;SDS011;71549;42.686;23.300;2023-10-13T02:44:52;6.13;;;5.25;;
43216;SDS011;71549;42.686;23.300;2023-10-13T02:46:56;8.55;;;5.18;;
43216;SDS011;71549;42.686;23.300;2023-10-13T02:48:56;6.78;;;5.47;;
43216;SDS011;71549;42.686;23.300;2023-10-13T02:51:03;6.32;;;5.63;;
43216;SDS011;71549;42.686;23.300;2023-10-13T02:53:07;6.45;;;5.15;;
43216;SDS011;71549;42.686;23.300;2023-10-13T02:55:12;8.27;;;6.13;;
43216;SDS011;71549;42.686;23.300;2023-10-13T02:57:17;7.55;;;5.78;;
43216;SDS011;71549;42.686;23.300;2023-10-13T02:59:17;6.50;;;5.45;;
43216;SDS011;71549;42.686;23.300;2023-10-13T03:01:34;6.45;;;5.55;;
43216;SDS011;71549;42.686;23.300;2023-10-13T03:03:35;7.30;;;5.10;;
43216;SDS011;71549;42.686;23.300;2023-10-13T03:05:36;6.50;;;5.63;;
43216;SDS011;71549;42.686;23.300;2023-10-13T03:07:42;7.03;;;4.90;;
43216;SDS011;71549;42.686;23.300;2023-10-13T03:09:43;8.18;;;5.60;;
43216;SDS011;71549;42.686;23.300;2023-10-13T03:11:51;6.20;;;5.47;;
43216;SDS011;71549;42.686;23.300;2023-10-13T03:13:53;6.40;;;5.38;;
43216;SDS011;71549;42.686;23.300;2023-10-13T03:15:54;9.00;;;5.45;;
43216;SDS011;71549;42.686;23.300;2023-10-13T03:20:18;6.67;;;5.60;;
43216;SDS011;71549;42.686;23.300;2023-10-13T03:22:39;6.53;;;5.45;;
43216;SDS011;71549;42.686;23.300;2023-10-13T03:24:41;7.85;;;5.90;;
43216;SDS011;71549;42.686;23.300;2023-10-13T03:26:45;6.72;;;5.32;;
43216;SDS011;71549;42.686;23.300;2023-10-13T03:28:52;7.05;;;5.60;;
43216;SDS011;71549;42.686;23.300;2023-10-13T03:30:53;9.10;;;5.47;;
43216;SDS011;71549;42.686;23.300;2023-10-13T03:32:54;5.45;;;4.93;;
43216;SDS011;71549;42.686;23.300;2023-10-13T03:34:56;6.65;;;5.13;;
43216;SDS011;71549;42.686;23.300;2023-10-13T03:37:13;6.18;;;5.47;;
43216;SDS011;71549;42.686;23.300;2023-10-13T03:39:40;7.50;;;5.18;;
43216;SDS011;71549;42.686;23.300;2023-10-13T03:41:44;6.65;;;5.95;;
43216;SDS011;71549;42.686;23.300;2023-10-13T03:43:45;7.05;;;5.15;;
43216;SDS011;71549;42.686;23.300;2023-10-13T03:45:50;8.20;;;5.10;;
43216;SDS011;71549;42.686;23.300;2023-10-13T03:48:00;7.75;;;5.25;;
43216;SDS011;71549;42.686;23.300;2023-10-13T03:50:08;5.30;;;4.80;;
43216;SDS011;71549;42.686;23.300;2023-10-13T03:52:15;5.90;;;4.93;;
43216;SDS011;71549;42.686;23.300;2023-10-13T03:54:22;7.03;;;5.57;;
43216;SDS011;71549;42.686;23.300;2023-10-13T03:56:24;6.05;;;5.47;;
43216;SDS011;71549;42.686;23.300;2023-10-13T03:58:27;7.07;;;5.32;;
43216;SDS011;71549;42.686;23.300;2023-10-13T04:00:30;7.40;;;5.07;;
43216;SDS011;71549;42.686;23.300;2023-10-13T04:02:31;7.15;;;5.90;;
43216;SDS011;71549;42.686;23.300;2023-10-13T04:04:32;6.60;;;5.63;;
43216;SDS011;71549;42.686;23.300;2023-10-13T04:06:54;7.05;;;5.57;;
43216;SDS011;71549;42.686;23.300;2023-10-13T04:09:16;7.10;;;5.72;;
43216;SDS011;71549;42.686;23.300;2023-10-13T04:11:30;8.35;;;5.43;;
43216;SDS011;71549;42.686;23.300;2023-10-13T04:13:49;8.40;;;5.35;;
43216;SDS011;71549;42.686;23.300;2023-10-13T04:16:18;7.57;;;5.40;;
43216;SDS011;71549;42.686;23.300;2023-10-13T04:18:21;9.05;;;6.03;;
43216;SDS011;71549;42.686;23.300;2023-10-13T04:20:52;8.38;;;5.45;;
43216;SDS011;71549;42.686;23.300;2023-10-13T04:23:03;7.00;;;5.78;;
43216;SDS011;71549;42.686;23.300;2023-10-13T04:27:40;6.20;;;5.63;;
43216;SDS011;71549;42.686;23.300;2023-10-13T04:29:54;8.00;;;6.00;;
43216;SDS011;71549;42.686;23.300;2023-10-13T04:32:10;6.88;;;5.85;;
43216;SDS011;71549;42.686;23.300;2023-10-13T04:34:14;8.25;;;6.28;;
43216;SDS011;71549;42.686;23.300;2023-10-13T04:36:27;7.53;;;5.90;;
43216;SDS011;71549;42.686;23.300;2023-10-13T04:38:28;7.28;;;5.78;;
43216;SDS011;71549;42.686;23.300;2023-10-13T04:40:35;8.18;;;6.15;;
43216;SDS011;71549;42.686;23.300;2023-10-13T04:42:58;7.43;;;5.72;;
43216;SDS011;71549;42.686;23.300;2023-10-13T04:45:05;7.97;;;6.10;;
43216;SDS011;71549;42.686;23.300;2023-10-13T04:47:28;7.57;;;6.10;;
43216;SDS011;71549;42.686;23.300;2023-10-13T04:49:39;8.45;;;6.05;;
43216;SDS011;71549;42.686;23.300;2023-10-13T04:51:43;8.00;;;6.20;;
43216;SDS011;71549;42.686;23.300;2023-10-13T04:53:58;8.05;;;5.90;;
43216;SDS011;71549;42.686;23.300;2023-10-13T04:56:04;9.88;;;5.93;;
43216;SDS011;71549;42.686;23.300;2023-10-13T04:58:23;7.72;;;6.00;;
43216;SDS011;71549;42.686;23.300;2023-10-13T05:00:33;8.48;;;5.35;;
43216;SDS011;71549;42.686;23.300;2023-10-13T05:03:03;10.48;;;5.97;;
43216;SDS011;71549;42.686;23.300;2023-10-13T05:05:24;7.93;;;5.72;;
43216;SDS011;71549;42.686;23.300;2023-10-13T05:07:24;7.07;;;5.65;;
43216;SDS011;71549;42.686;23.300;2023-10-13T05:09:43;7.28;;;6.00;;
43216;SDS011;71549;42.686;23.300;2023-10-13T05:12:22;8.02;;;5.82;;
43216;SDS011;71549;42.686;23.300;2023-10-13T05:14:41;7.05;;;5.70;;
43216;SDS011;71549;42.686;23.300;2023-10-13T05:17:00;8.63;;;5.60;;
43216;SDS011;71549;42.686;23.300;2023-10-13T05:19:19;9.23;;;6.80;;
43216;SDS011;71549;42.686;23.300;2023-10-13T05:21:38;7.88;;;6.03;;
43216;SDS011;71549;42.686;23.300;2023-10-13T05:23:57;7.18;;;5.40;;
43216;SDS011;71549;42.686;23.300;2023-10-13T05:26:16;8.15;;;5.60;;
43216;SDS011;71549;42.686;23.300;2023-10-13T05:28:34;10.38;;;6.22;;
43216;SDS011;71549;42.686;23.300;2023-10-13T05:30:53;7.32;;;6.07;;
43216;SDS011;71549;42.686;23.300;2023-10-13T05:33:12;7.53;;;5.97;;
43216;SDS011;71549;42.686;23.300;2023-10-13T05:35:31;7.70;;;5.93;;
43216;SDS011;71549;42.686;23.300;2023-10-13T05:37:51;7.70;;;5.95;;
43216;SDS011;71549;42.686;23.300;2023-10-13T05:40:10;7.80;;;5.28;;
43216;SDS011;71549;42.686;23.300;2023-10-13T05:42:29;8.52;;;6.07;;
43216;SDS011;71549;42.686;23.300;2023-10-13T05:45:08;6.90;;;6.30;;
43216;SDS011;71549;42.686;23.300;2023-10-13T05:47:17;9.70;;;5.85;;
43216;SDS011;71549;42.686;23.300;2023-10-13T05:49:36;10.25;;;5.63;;
43216;SDS011;71549;42.686;23.300;2023-10-13T05:51:50;10.35;;;5.57;;
43216;SDS011;71549;42.686;23.300;2023-10-13T05:54:08;7.88;;;5.60;;
43216;SDS011;71549;42.686;23.300;2023-10-13T05:56:15;9.73;;;6.10;;
43216;SDS011;71549;42.686;23.300;2023-10-13T05:58:34;9.57;;;6.25;;
43216;SDS011;71549;42.686;23.300;2023-10-13T06:00:53;8.80;;;6.63;;
43216;SDS011;71549;42.686;23.300;2023-10-13T06:03:12;7.60;;;6.65;;
43216;SDS011;71549;42.686;23.300;2023-10-13T06:05:31;7.60;;;6.50;;
43216;SDS011;71549;42.686;23.300;2023-10-13T06:07:50;8.57;;;6.03;;
43216;SDS011;71549;42.686;23.300;2023-10-13T06:10:09;11.45;;;6.60;;
43216;SDS011;71549;42.686;23.300;2023-10-13T06:12:28;9.15;;;7.18;;
43216;SDS011;71549;42.686;23.300;2023-10-13T06:14:47;7.60;;;6.20;;
43216;SDS011;71549;42.686;23.300;2023-10-13T06:17:06;7.38;;;6.05;;
43216;SDS011;71549;42.686;23.300;2023-10-13T06:19:25;7.60;;;6.03;;
43216;SDS011;71549;42.686;23.300;2023-10-13T06:21:44;7.80;;;6.53;;
43216;SDS011;71549;42.686;23.300;2023-10-13T06:24:03;7.05;;;6.28;;
43216;SDS011;71549;42.686;23.300;2023-10-13T06:26:23;6.72;;;5.85;;
43216;SDS011;71549;42.686;23.300;2023-10-13T06:28:42;8.63;;;5.78;;
43216;SDS011;71549;42.686;23.300;2023-10-13T06:30:42;9.07;;;6.40;;
43216;SDS011;71549;42.686;23.300;2023-10-13T06:32:47;9.07;;;6.20;;
43216;SDS011;71549;42.686;23.300;2023-10-13T06:34:48;8.88;;;6.28;;
43216;SDS011;71549;42.686;23.300;2023-10-13T06:36:51;7.00;;;6.10;;
43216;SDS011;71549;42.686;23.300;2023-10-13T06:38:54;11.13;;;6.57;;
43216;SDS011;71549;42.686;23.300;2023-10-13T06:41:17;10.20;;;7.07;;
43216;SDS011;71549;42.686;23.300;2023-10-13T06:43:30;8.02;;;6.18;;
43216;SDS011;71549;42.686;23.300;2023-10-13T06:45:32;6.80;;;5.70;;
43216;SDS011;71549;42.686;23.300;2023-10-13T06:49:45;8.65;;;5.65;;
43216;SDS011;71549;42.686;23.300;2023-10-13T06:51:45;7.95;;;6.22;;
43216;SDS011;71549;42.686;23.300;2023-10-13T06:53:47;9.50;;;6.80;;
43216;SDS011;71549;42.686;23.300;2023-10-13T06:55:48;6.80;;;5.80;;
43216;SDS011;71549;42.686;23.300;2023-10-13T06:57:55;9.02;;;6.57;;
43216;SDS011;71549;42.686;23.300;2023-10-13T07:00:00;7.32;;;6.15;;
43216;SDS011;71549;42.686;23.300;2023-10-13T07:02:07;6.78;;;5.72;;
43216;SDS011;71549;42.686;23.300;2023-10-13T07:04:21;6.68;;;5.68;;
43216;SDS011;71549;42.686;23.300;2023-10-13T07:06:22;8.70;;;5.70;;
43216;SDS011;71549;42.686;23.300;2023-10-13T07:08:22;8.20;;;6.15;;
43216;SDS011;71549;42.686;23.300;2023-10-13T07:10:24;6.45;;;5.55;;
43216;SDS011;71549;42.686;23.300;2023-10-13T07:12:30;8.40;;;6.07;;
43216;SDS011;71549;42.686;23.300;2023-10-13T07:14:33;8.02;;;6.43;;
43216;SDS011;71549;42.686;23.300;2023-10-13T07:16:34;8.95;;;6.20;;
43216;SDS011;71549;42.686;23.300;2023-10-13T07:18:35;7.97;;;6.13;;
43216;SDS011;71549;42.686;23.300;2023-10-13T07:20:37;8.52;;;6.43;;
43216;SDS011;71549;42.686;23.300;2023-10-13T07:22:43;7.78;;;6.13;;
43216;SDS011;71549;42.686;23.300;2023-10-13T07:25:19;8.38;;;6.20;;
43216;SDS011;71549;42.686;23.300;2023-10-13T07:27:24;9.55;;;7.18;;
43216;SDS011;71549;42.686;23.300;2023-10-13T07:29:24;8.65;;;6.30;;
43216;SDS011;71549;42.686;23.300;2023-10-13T07:31:25;7.75;;;6.10;;
43216;SDS011;71549;42.686;23.300;2023-10-13T07:33:27;8.57;;;5.93;;
43216;SDS011;71549;42.686;23.300;2023-10-13T07:35:27;7.68;;;6.10;;
43216;SDS011;71549;42.686;23.300;2023-10-13T07:39:32;8.65;;;6.80;;
43216;SDS011;71549;42.686;23.300;2023-10-13T07:41:39;8.68;;;6.50;;
43216;SDS011;71549;42.686;23.300;2023-10-13T07:43:42;7.85;;;6.07;;
43216;SDS011;71549;42.686;23.300;2023-10-13T07:45:43;8.18;;;5.75;;
43216;SDS011;71549;42.686;23.300;2023-10-13T07:47:43;8.55;;;5.78;;
43216;SDS011;71549;42.686;23.300;2023-10-13T07:49:45;7.25;;;6.38;;
43216;SDS011;71549;42.686;23.300;2023-10-13T07:51:46;8.57;;;6.20;;
43216;SDS011;71549;42.686;23.300;2023-10-13T07:55:52;6.68;;;5.70;;
43216;SDS011;71549;42.686;23.300;2023-10-13T07:57:55;7.50;;;6.30;;
43216;SDS011;71549;42.686;23.300;2023-10-13T07:59:59;10.50;;;6.75;;
43216;SDS011;71549;42.686;23.300;2023-10-13T08:02:25;6.50;;;5.95;;
43216;SDS011;71549;42.686;23.300;2023-10-13T08:04:44;7.22;;;6.30;;
43216;SDS011;71549;42.686;23.300;2023-10-13T08:06:45;7.47;;;5.93;;
43216;SDS011;71549;42.686;23.300;2023-10-13T08:08:45;8.07;;;6.13;;
43216;SDS011;71549;42.686;23.300;2023-10-13T08:10:50;7.35;;;6.45;;
43216;SDS011;71549;42.686;23.300;2023-10-13T08:12:55;6.78;;;6.03;;
43216;SDS011;71549;42.686;23.300;2023-10-13T08:14:58;9.05;;;6.20;;
43216;SDS011;71549;42.686;23.300;2023-10-13T08:17:13;7.38;;;6.53;;
43216;SDS011;71549;42.686;23.300;2023-10-13T08:19:17;6.55;;;5.53;;
43216;SDS011;71549;42.686;23.300;2023-10-13T08:21:31;8.73;;;6.55;;
43216;SDS011;71549;42.686;23.300;2023-10-13T08:23:34;8.05;;;6.18;;
43216;SDS011;71549;42.686;23.300;2023-10-13T08:25:54;8.07;;;6.53;;
43216;SDS011;71549;42.686;23.300;2023-10-13T08:28:13;7.05;;;6.00;;
43216;SDS011;71549;42.686;23.300;2023-10-13T08:30:33;8.35;;;6.70;;
43216;SDS011;71549;42.686;23.300;2023-10-13T08:32:42;7.57;;;6.78;;
43216;SDS011;71549;42.686;23.300;2023-10-13T08:34:55;8.10;;;6.78;;
43216;SDS011;71549;42.686;23.300;2023-10-13T08:36:59;8.75;;;7.53;;
43216;SDS011;71549;42.686;23.300;2023-10-13T08:39:00;8.75;;;6.93;;
43216;SDS011;71549;42.686;23.300;2023-10-13T08:41:20;6.88;;;5.95;;
43216;SDS011;71549;42.686;23.300;2023-10-13T08:43:24;7.57;;;6.40;;
43216;SDS011;71549;42.686;23.300;2023-10-13T08:45:40;7.97;;;6.47;;
43216;SDS011;71549;42.686;23.300;2023-10-13T08:47:44;8.07;;;6.13;;
43216;SDS011;71549;42.686;23.300;2023-10-13T08:49:53;8.00;;;7.03;;
43216;SDS011;71549;42.686;23.300;2023-10-13T08:52:10;8.23;;;6.68;;
43216;SDS011;71549;42.686;23.300;2023-10-13T08:54:35;8.75;;;6.85;;
43216;SDS011;71549;42.686;23.300;2023-10-13T08:56:46;7.07;;;6.17;;
43216;SDS011;71549;42.686;23.300;2023-10-13T08:58:56;9.38;;;6.70;;
43216;SDS011;71549;42.686;23.300;2023-10-13T09:00:57;7.22;;;6.50;;
43216;SDS011;71549;42.686;23.300;2023-10-13T09:03:11;7.93;;;7.22;;
43216;SDS011;71549;42.686;23.300;2023-10-13T09:05:38;7.93;;;7.00;;
43216;SDS011;71549;42.686;23.300;2023-10-13T09:07:45;9.63;;;6.78;;
43216;SDS011;71549;42.686;23.300;2023-10-13T09:09:49;8.25;;;6.43;;
43216;SDS011;71549;42.686;23.300;2023-10-13T09:11:53;7.93;;;6.20;;
43216;SDS011;71549;42.686;23.300;2023-10-13T09:14:14;8.48;;;7.53;;
43216;SDS011;71549;42.686;23.300;2023-10-13T09:16:33;7.88;;;6.45;;
43216;SDS011;71549;42.686;23.300;2023-10-13T09:18:39;10.10;;;7.25;;
43216;SDS011;71549;42.686;23.300;2023-10-13T09:20:58;8.68;;;7.07;;
43216;SDS011;71549;42.686;23.300;2023-10-13T09:23:20;8.23;;;7.43;;
43216;SDS011;71549;42.686;23.300;2023-10-13T09:25:27;8.45;;;6.72;;
43216;SDS011;71549;42.686;23.300;2023-10-13T09:27:33;8.40;;;7.55;;
43216;SDS011;71549;42.686;23.300;2023-10-13T09:29:37;7.78;;;6.88;;
43216;SDS011;71549;42.686;23.300;2023-10-13T09:31:39;8.77;;;6.78;;
43216;SDS011;71549;42.686;23.300;2023-10-13T09:33:39;7.90;;;6.93;;
43216;SDS011;71549;42.686;23.300;2023-10-13T09:35:50;7.18;;;6.32;;
43216;SDS011;71549;42.686;23.300;2023-10-13T09:37:51;8.52;;;6.68;;
43216;SDS011;71549;42.686;23.300;2023-10-13T09:39:56;8.63;;;6.55;;
43216;SDS011;71549;42.686;23.300;2023-10-13T09:42:05;8.73;;;7.35;;
43216;SDS011;71549;42.686;23.300;2023-10-13T09:44:10;8.00;;;7.10;;
43216;SDS011;71549;42.686;23.300;2023-10-13T09:46:11;9.35;;;6.95;;
43216;SDS011;71549;42.686;23.300;2023-10-13T09:48:18;8.13;;;6.65;;
43216;SDS011;71549;42.686;23.300;2023-10-13T09:50:26;8.07;;;6.95;;
43216;SDS011;71549;42.686;23.300;2023-10-13T09:52:33;8.73;;;7.50;;
43216;SDS011;71549;42.686;23.300;2023-10-13T09:54:37;10.25;;;7.25;;
43216;SDS011;71549;42.686;23.300;2023-10-13T09:56:48;9.98;;;7.20;;
43216;SDS011;71549;42.686;23.300;2023-10-13T09:58:58;8.55;;;6.90;;
43216;SDS011;71549;42.686;23.300;2023-10-13T10:01:14;8.07;;;7.22;;
43216;SDS011;71549;42.686;23.300;2023-10-13T10:03:31;8.57;;;7.43;;
43216;SDS011;71549;42.686;23.300;2023-10-13T10:05:34;9.45;;;7.28;;
43216;SDS011;71549;42.686;23.300;2023-10-13T10:07:35;8.18;;;6.63;;
43216;SDS011;71549;42.686;23.300;2023-10-13T10:09:36;8.32;;;6.93;;
43216;SDS011;71549;42.686;23.300;2023-10-13T10:17:02;9.27;;;6.40;;
43216;SDS011;71549;42.686;23.300;2023-10-13T10:19:08;7.47;;;6.55;;
43216;SDS011;71549;42.686;23.300;2023-10-13T10:21:08;8.20;;;6.65;;
43216;SDS011;71549;42.686;23.300;2023-10-13T10:23:12;9.85;;;7.30;;
43216;SDS011;71549;42.686;23.300;2023-10-13T10:25:32;7.75;;;6.68;;
43216;SDS011;71549;42.686;23.300;2023-10-13T10:27:37;7.82;;;7.03;;
43216;SDS011;71549;42.686;23.300;2023-10-13T10:29:38;6.65;;;6.05;;
43216;SDS011;71549;42.686;23.300;2023-10-13T10:31:38;7.85;;;6.63;;
43216;SDS011;71549;42.686;23.300;2023-10-13T10:33:44;7.88;;;6.82;;
43216;SDS011;71549;42.686;23.300;2023-10-13T10:35:47;7.72;;;6.93;;
43216;SDS011;71549;42.686;23.300;2023-10-13T10:38:08;8.25;;;6.38;;
43216;SDS011;71549;42.686;23.300;2023-10-13T10:40:23;7.65;;;6.88;;
43216;SDS011;71549;42.686;23.300;2023-10-13T10:42:50;7.47;;;6.72;;
43216;SDS011;71549;42.686;23.300;2023-10-13T10:44:52;8.02;;;6.13;;
43216;SDS011;71549;42.686;23.300;2023-10-13T10:49:03;7.38;;;6.15;;
43216;SDS011;71549;42.686;23.300;2023-10-13T10:51:05;6.47;;;5.80;;
43216;SDS011;71549;42.686;23.300;2023-10-13T10:53:24;6.85;;;6.25;;
43216;SDS011;71549;42.686;23.300;2023-10-13T10:55:48;7.20;;;6.30;;
43216;SDS011;71549;42.686;23.300;2023-10-13T10:57:57;7.53;;;6.25;;
43216;SDS011;71549;42.686;23.300;2023-10-13T10:59:59;8.02;;;6.95;;
43216;SDS011;71549;42.686;23.300;2023-10-13T11:02:11;6.35;;;5.75;;
43216;SDS011;71549;42.686;23.300;2023-10-13T11:04:27;7.38;;;6.07;;
43216;SDS011;71549;42.686;23.300;2023-10-13T11:06:37;6.57;;;5.90;;
43216;SDS011;71549;42.686;23.300;2023-10-13T11:08:42;6.78;;;6.18;;
43216;SDS011;71549;42.686;23.300;2023-10-13T11:10:46;7.57;;;6.20;;
43216;SDS011;71549;42.686;23.300;2023-10-13T11:12:53;7.13;;;6.30;;
43216;SDS011;71549;42.686;23.300;2023-10-13T11:15:04;6.30;;;5.50;;
43216;SDS011;71549;42.686;23.300;2023-10-13T11:17:33;7.80;;;6.22;;
43216;SDS011;71549;42.686;23.300;2023-10-13T11:19:42;8.63;;;6.30;;
43216;SDS011;71549;42.686;23.300;2023-10-13T11:21:43;7.63;;;5.60;;
43216;SDS011;71549;42.686;23.300;2023-10-13T11:23:43;7.70;;;6.50;;
43216;SDS011;71549;42.686;23.300;2023-10-13T11:25:57;6.70;;;6.10;;
43216;SDS011;71549;42.686;23.300;2023-10-13T11:28:09;7.53;;;6.57;;
43216;SDS011;71549;42.686;23.300;2023-10-13T11:30:17;6.20;;;5.60;;
43216;SDS011;71549;42.686;23.300;2023-10-13T11:32:57;6.25;;;5.65;;
43216;SDS011;71549;42.686;23.300;2023-10-13T11:34:59;7.22;;;6.13;;
43216;SDS011;71549;42.686;23.300;2023-10-13T11:37:00;6.85;;;6.07;;
43216;SDS011;71549;42.686;23.300;2023-10-13T11:39:20;7.07;;;5.85;;
43216;SDS011;71549;42.686;23.300;2023-10-13T11:41:30;6.28;;;5.65;;
43216;SDS011;71549;42.686;23.300;2023-10-13T11:43:35;6.63;;;6.03;;
43216;SDS011;71549;42.686;23.300;2023-10-13T11:45:46;6.35;;;5.70;;
43216;SDS011;71549;42.686;23.300;2023-10-13T11:48:14;7.43;;;5.97;;
43216;SDS011;71549;42.686;23.300;2023-10-13T11:50:16;6.28;;;5.63;;
43216;SDS011;71549;42.686;23.300;2023-10-13T11:52:32;5.97;;;5.38;;
43216;SDS011;71549;42.686;23.300;2023-10-13T11:54:32;6.47;;;5.70;;
43216;SDS011;71549;42.686;23.300;2023-10-13T11:56:34;6.32;;;5.18;;
43216;SDS011;71549;42.686;23.300;2023-10-13T11:58:34;6.75;;;6.10;;
43216;SDS011;71549;42.686;23.300;2023-10-13T12:00:39;9.05;;;5.10;;
43216;SDS011;71549;42.686;23.300;2023-10-13T12:02:53;6.35;;;5.38;;
43216;SDS011;71549;42.686;23.300;2023-10-13T12:05:12;6.38;;;5.43;;
43216;SDS011;71549;42.686;23.300;2023-10-13T12:07:13;7.88;;;6.07;;
43216;SDS011;71549;42.686;23.300;2023-10-13T12:09:20;5.47;;;4.82;;
43216;SDS011;71549;42.686;23.300;2023-10-13T12:11:20;5.65;;;5.07;;
43216;SDS011;71549;42.686;23.300;2023-10-13T12:13:38;5.65;;;5.15;;
43216;SDS011;71549;42.686;23.300;2023-10-13T12:15:39;5.28;;;4.78;;
43216;SDS011;71549;42.686;23.300;2023-10-13T12:17:51;5.65;;;5.15;;
43216;SDS011;71549;42.686;23.300;2023-10-13T12:19:52;6.05;;;5.50;;
43216;SDS011;71549;42.686;23.300;2023-10-13T12:21:53;5.53;;;4.88;;
43216;SDS011;71549;42.686;23.300;2023-10-13T12:23:57;5.60;;;5.10;;
43216;SDS011;71549;42.686;23.300;2023-10-13T12:25:57;6.68;;;5.40;;
43216;SDS011;71549;42.686;23.300;2023-10-13T12:28:00;5.57;;;4.93;;
43216;SDS011;71549;42.686;23.300;2023-10-13T12:30:21;6.57;;;4.88;;
43216;SDS011;71549;42.686;23.300;2023-10-13T12:32:49;5.10;;;4.57;;
43216;SDS011;71549;42.686;23.300;2023-10-13T12:35:08;6.28;;;5.07;;
43216;SDS011;71549;42.686;23.300;2023-10-13T12:37:10;5.78;;;5.13;;
43216;SDS011;71549;42.686;23.300;2023-10-13T12:39:30;4.40;;;4.00;;
43216;SDS011;71549;42.686;23.300;2023-10-13T12:41:49;5.88;;;4.82;;
43216;SDS011;71549;42.686;23.300;2023-10-13T12:44:08;7.75;;;4.95;;
43216;SDS011;71549;42.686;23.300;2023-10-13T12:46:27;5.50;;;4.80;;
43216;SDS011;71549;42.686;23.300;2023-10-13T12:48:46;5.00;;;4.55;;
43216;SDS011;71549;42.686;23.300;2023-10-13T12:51:01;5.03;;;4.50;;
43216;SDS011;71549;42.686;23.300;2023-10-13T12:53:28;4.75;;;4.35;;
43216;SDS011;71549;42.686;23.300;2023-10-13T12:55:31;5.75;;;4.80;;
43216;SDS011;71549;42.686;23.300;2023-10-13T12:57:31;6.50;;;4.65;;
43216;SDS011;71549;42.686;23.300;2023-10-13T12:59:32;6.18;;;4.53;;
43216;SDS011;71549;42.686;23.300;2023-10-13T13:01:33;5.30;;;4.80;;
43216;SDS011;71549;42.686;23.300;2023-10-13T13:03:34;6.95;;;4.75;;